TimeEET,TemperatureF,Dew PointF,Humidity,Sea Level PressureIn,VisibilityMPH,Wind Direction,Wind SpeedMPH,Gust SpeedMPH,PrecipitationIn,Events,Conditions,WindDirDegrees,DateUTC
12:00 AM,48.2,42.8,82,30.24,-9999.0,North,4.6,-,N/A,,Clear,10,2013-01-02 22:00:00
1:00 AM,48.2,42.8,82,30.24,-9999.0,North,2.3,-,N/A,,Clear,350,2013-01-02 23:00:00
2:00 AM,47,43,82,30.27,6,NNW,4.6,,,,,330,2013-01-03 00:00:00
2:00 AM,46.4,42.8,87,30.24,-9999.0,NNW,4.6,-,N/A,,Clear,330,2013-01-03 00:00:00
3:00 AM,46.4,42.8,87,30.24,-9999.0,NNW,4.6,-,N/A,,Clear,330,2013-01-03 01:00:00
4:00 AM,44.6,41.0,87,30.24,-9999.0,NNW,2.3,-,N/A,,Clear,330,2013-01-03 02:00:00
5:00 AM,44.6,42.8,93,30.24,-9999.0,NNW,8.1,-,N/A,,Clear,330,2013-01-03 03:00:00
6:00 AM,42.8,41.0,93,30.24,-9999.0,NNW,6.9,-,N/A,,Clear,330,2013-01-03 04:00:00
7:00 AM,44.6,42.8,93,30.24,3.7,NNW,6.9,-,N/A,,Unknown,330,2013-01-03 05:00:00
8:00 AM,46,43,84,30.27,4,NNW,6.9,,,,Mist,340,2013-01-03 06:00:00
8:00 AM,46.4,42.8,87,30.24,3.7,NNW,6.9,-,N/A,,Unknown,340,2013-01-03 06:00:00
9:00 AM,50.0,42.8,76,30.27,3.7,NNW,8.1,-,N/A,,Unknown,330,2013-01-03 07:00:00
10:00 AM,53.6,42.8,67,30.27,5.0,NNW,8.1,-,N/A,,Unknown,330,2013-01-03 08:00:00
11:00 AM,57.2,42.8,59,30.27,-9999.0,North,6.9,-,N/A,,Clear,360,2013-01-03 09:00:00
12:00 PM,60.8,42.8,52,30.24,-9999.0,North,10.4,-,N/A,,Clear,360,2013-01-03 10:00:00
2:00 PM,66,45,35,30.19,6,NNW,10.4,,,,,340,2013-01-03 12:00:00
2:00 PM,66.2,44.6,46,30.21,-9999.0,NNW,10.4,-,N/A,,Clear,340,2013-01-03 12:00:00
3:00 PM,66.2,44.6,46,30.18,-9999.0,North,11.5,-,N/A,,Clear,360,2013-01-03 13:00:00
4:00 PM,66.2,44.6,46,30.18,-9999.0,NNW,9.2,-,N/A,,Clear,340,2013-01-03 14:00:00
5:00 PM,66.2,48.2,52,30.18,-9999.0,NW,9.2,-,N/A,,Clear,320,2013-01-03 15:00:00
6:00 PM,62.6,48.2,59,30.18,-9999.0,NW,10.4,-,N/A,,Clear,320,2013-01-03 16:00:00
7:00 PM,59.0,46.4,63,30.18,-9999.0,NW,11.5,-,N/A,,Clear,320,2013-01-03 17:00:00
8:00 PM,57,51,72,30.19,6,NNW,9.2,,,,,330,2013-01-03 18:00:00
8:00 PM,57.2,50.0,77,30.21,-9999.0,NNW,9.2,-,N/A,,Clear,330,2013-01-03 18:00:00
9:00 PM,55.4,50.0,82,30.21,-9999.0,NNW,5.8,-,N/A,,Clear,330,2013-01-03 19:00:00
10:00 PM,53.6,50.0,88,30.21,-9999.0,NNW,4.6,-,N/A,,Clear,330,2013-01-03 20:00:00
11:00 PM,53.6,50.0,88,30.21,-9999.0,NW,5.8,-,N/A,,Clear,310,2013-01-03 21:00:00